sensor_id;sensor_type;location;lat;lon;timestamp;pressure;altitude;pressure_sealevel;temperature;humidity
12793;BME280;6460;42.684;23.260;2022-12-13T00:01:38;94048.25;;;0.13;100.00
12793;BME280;6460;42.684;23.260;2022-12-13T00:04:06;94046.59;;;0.25;100.00
12793;BME280;6460;42.684;23.260;2022-12-13T00:06:34;94048.22;;;0.43;100.00
12793;BME280;6460;42.684;23.260;2022-12-13T00:09:02;94054.72;;;0.37;100.00
12793;BME280;6460;42.684;23.260;2022-12-13T00:11:30;94047.53;;;0.29;100.00
12793;BME280;6460;42.684;23.260;2022-12-13T00:13:58;94064.66;;;0.32;100.00
12793;BME280;6460;42.684;23.260;2022-12-13T00:16:25;94070.03;;;-0.04;100.00
12793;BME280;6460;42.684;23.260;2022-12-13T00:18:55;94059.50;;;0.05;100.00
12793;BME280;6460;42.684;23.260;2022-12-13T00:21:24;94069.00;;;0.06;100.00
12793;BME280;6460;42.684;23.260;2022-12-13T00:23:52;94067.75;;;0.34;100.00
12793;BME280;6460;42.684;23.260;2022-12-13T00:26:21;94065.72;;;0.62;100.00
12793;BME280;6460;42.684;23.260;2022-12-13T00:28:48;94062.84;;;0.49;100.00
12793;BME280;6460;42.684;23.260;2022-12-13T00:31:16;94069.72;;;0.50;100.00
12793;BME280;6460;42.684;23.260;2022-12-13T00:33:44;94064.34;;;0.33;100.00
12793;BME280;6460;42.684;23.260;2022-12-13T00:36:12;94067.63;;;0.39;100.00
12793;BME280;6460;42.684;23.260;2022-12-13T00:38:39;94065.72;;;0.31;100.00
12793;BME280;6460;42.684;23.260;2022-12-13T00:41:11;94067.16;;;0.37;100.00
12793;BME280;6460;42.684;23.260;2022-12-13T00:43:39;94064.50;;;0.37;100.00
12793;BME280;6460;42.684;23.260;2022-12-13T00:46:07;94076.19;;;0.14;100.00
12793;BME280;6460;42.684;23.260;2022-12-13T00:48:39;94075.19;;;0.01;100.00
12793;BME280;6460;42.684;23.260;2022-12-13T00:51:07;94066.75;;;0.21;100.00
12793;BME280;6460;42.684;23.260;2022-12-13T00:53:36;94065.38;;;0.24;100.00
12793;BME280;6460;42.684;23.260;2022-12-13T00:56:04;94070.41;;;0.03;100.00
12793;BME280;6460;42.684;23.260;2022-12-13T00:58:35;94069.91;;;0.01;100.00
12793;BME280;6460;42.684;23.260;2022-12-13T01:01:03;94060.94;;;0.11;100.00
12793;BME280;6460;42.684;23.260;2022-12-13T01:03:31;94064.72;;;0.18;100.00
12793;BME280;6460;42.684;23.260;2022-12-13T01:05:58;94065.19;;;0.20;100.00
12793;BME280;6460;42.684;23.260;2022-12-13T01:08:26;94071.97;;;0.35;100.00
12793;BME280;6460;42.684;23.260;2022-12-13T01:10:54;94073.16;;;0.29;100.00
12793;BME280;6460;42.684;23.260;2022-12-13T01:13:21;94068.25;;;0.14;100.00
12793;BME280;6460;42.684;23.260;2022-12-13T01:15:48;94068.41;;;0.09;100.00
12793;BME280;6460;42.684;23.260;2022-12-13T01:18:15;94076.13;;;0.27;100.00
12793;BME280;6460;42.684;23.260;2022-12-13T01:20:56;94067.31;;;0.32;100.00
12793;BME280;6460;42.684;23.260;2022-12-13T01:23:24;94078.00;;;0.05;100.00
12793;BME280;6460;42.684;23.260;2022-12-13T01:25:51;94076.84;;;-0.03;100.00
12793;BME280;6460;42.684;23.260;2022-12-13T01:28:20;94063.66;;;-0.03;100.00
12793;BME280;6460;42.684;23.260;2022-12-13T01:30:55;94058.31;;;0.11;100.00
12793;BME280;6460;42.684;23.260;2022-12-13T01:33:23;94054.44;;;0.17;100.00
12793;BME280;6460;42.684;23.260;2022-12-13T01:35:51;94061.06;;;0.28;100.00
12793;BME280;6460;42.684;23.260;2022-12-13T01:38:18;94060.53;;;0.17;100.00
12793;BME280;6460;42.684;23.260;2022-12-13T01:40:47;94065.75;;;0.09;100.00
12793;BME280;6460;42.684;23.260;2022-12-13T01:43:15;94063.59;;;0.11;100.00
12793;BME280;6460;42.684;23.260;2022-12-13T01:45:44;94065.94;;;0.12;100.00
12793;BME280;6460;42.684;23.260;2022-12-13T01:48:13;94063.84;;;0.00;100.00
12793;BME280;6460;42.684;23.260;2022-12-13T01:50:46;94073.75;;;-0.05;100.00
12793;BME280;6460;42.684;23.260;2022-12-13T01:53:16;94072.88;;;-0.23;100.00
12793;BME280;6460;42.684;23.260;2022-12-13T01:55:46;94070.69;;;-0.21;100.00
12793;BME280;6460;42.684;23.260;2022-12-13T01:58:16;94073.56;;;-0.09;100.00
12793;BME280;6460;42.684;23.260;2022-12-13T02:00:45;94067.03;;;-0.11;100.00
12793;BME280;6460;42.684;23.260;2022-12-13T02:03:14;94068.53;;;-0.19;100.00
12793;BME280;6460;42.684;23.260;2022-12-13T02:05:45;94071.56;;;-0.25;100.00
12793;BME280;6460;42.684;23.260;2022-12-13T02:08:14;94067.91;;;-0.16;100.00
12793;BME280;6460;42.684;23.260;2022-12-13T02:10:42;94063.75;;;-0.17;100.00
12793;BME280;6460;42.684;23.260;2022-12-13T02:13:10;94061.97;;;-0.21;100.00
12793;BME280;6460;42.684;23.260;2022-12-13T02:15:41;94067.25;;;0.01;100.00
12793;BME280;6460;42.684;23.260;2022-12-13T02:18:23;94059.94;;;-0.02;100.00
12793;BME280;6460;42.684;23.260;2022-12-13T02:21:09;94058.09;;;-0.02;100.00
12793;BME280;6460;42.684;23.260;2022-12-13T02:26:59;94070.88;;;0.05;100.00
12793;BME280;6460;42.684;23.260;2022-12-13T02:32:56;94062.53;;;0.12;100.00
12793;BME280;6460;42.684;23.260;2022-12-13T02:35:31;94067.19;;;0.15;100.00
12793;BME280;6460;42.684;23.260;2022-12-13T02:38:03;94074.75;;;0.08;100.00
12793;BME280;6460;42.684;23.260;2022-12-13T02:40:38;94084.50;;;-0.02;100.00
12793;BME280;6460;42.684;23.260;2022-12-13T02:43:10;94089.97;;;-0.20;100.00
12793;BME280;6460;42.684;23.260;2022-12-13T02:45:44;94078.38;;;-0.11;100.00
12793;BME280;6460;42.684;23.260;2022-12-13T02:48:16;94076.34;;;-0.14;100.00
12793;BME280;6460;42.684;23.260;2022-12-13T02:50:45;94078.00;;;-0.18;100.00
12793;BME280;6460;42.684;23.260;2022-12-13T02:53:13;94087.97;;;-0.37;100.00
12793;BME280;6460;42.684;23.260;2022-12-13T02:55:41;94091.34;;;-0.59;100.00
12793;BME280;6460;42.684;23.260;2022-12-13T02:58:11;94088.75;;;-0.72;100.00
12793;BME280;6460;42.684;23.260;2022-12-13T03:00:45;94083.47;;;-0.72;100.00
12793;BME280;6460;42.684;23.260;2022-12-13T03:03:24;94081.00;;;-0.69;100.00
12793;BME280;6460;42.684;23.260;2022-12-13T03:06:04;94081.19;;;-0.65;100.00
12793;BME280;6460;42.684;23.260;2022-12-13T03:08:55;94087.66;;;-0.71;100.00
12793;BME280;6460;42.684;23.260;2022-12-13T03:11:40;94078.09;;;-0.67;100.00
12793;BME280;6460;42.684;23.260;2022-12-13T03:14:29;94082.88;;;-0.69;100.00
12793;BME280;6460;42.684;23.260;2022-12-13T03:17:05;94081.19;;;-0.65;100.00
12793;BME280;6460;42.684;23.260;2022-12-13T03:19:35;94086.47;;;-0.65;100.00
12793;BME280;6460;42.684;23.260;2022-12-13T03:22:04;94089.00;;;-0.96;100.00
12793;BME280;6460;42.684;23.260;2022-12-13T03:24:32;94086.50;;;-0.92;100.00
12793;BME280;6460;42.684;23.260;2022-12-13T03:26:59;94087.34;;;-1.19;100.00
12793;BME280;6460;42.684;23.260;2022-12-13T03:29:27;94083.00;;;-0.88;100.00
12793;BME280;6460;42.684;23.260;2022-12-13T03:31:54;94090.72;;;-0.91;100.00
12793;BME280;6460;42.684;23.260;2022-12-13T03:34:21;94090.56;;;-1.22;100.00
12793;BME280;6460;42.684;23.260;2022-12-13T03:36:50;94096.91;;;-1.10;100.00
12793;BME280;6460;42.684;23.260;2022-12-13T03:39:18;94091.81;;;-1.20;100.00
12793;BME280;6460;42.684;23.260;2022-12-13T03:41:46;94082.41;;;-0.98;100.00
12793;BME280;6460;42.684;23.260;2022-12-13T03:44:13;94088.59;;;-1.03;100.00
12793;BME280;6460;42.684;23.260;2022-12-13T03:46:40;94093.56;;;-0.88;100.00
12793;BME280;6460;42.684;23.260;2022-12-13T03:49:07;94095.41;;;-1.02;100.00
12793;BME280;6460;42.684;23.260;2022-12-13T03:51:35;94101.59;;;-1.07;100.00
12793;BME280;6460;42.684;23.260;2022-12-13T03:54:03;94113.31;;;-0.99;100.00
12793;BME280;6460;42.684;23.260;2022-12-13T03:56:31;94109.38;;;-0.74;100.00
12793;BME280;6460;42.684;23.260;2022-12-13T03:58:58;94107.63;;;-0.92;100.00
12793;BME280;6460;42.684;23.260;2022-12-13T04:01:26;94109.38;;;-1.01;100.00
12793;BME280;6460;42.684;23.260;2022-12-13T04:03:54;94107.31;;;-0.77;100.00
12793;BME280;6460;42.684;23.260;2022-12-13T04:06:21;94120.50;;;-0.77;100.00
12793;BME280;6460;42.684;23.260;2022-12-13T04:08:47;94113.47;;;-0.68;100.00
12793;BME280;6460;42.684;23.260;2022-12-13T04:11:16;94119.53;;;-0.68;100.00
12793;BME280;6460;42.684;23.260;2022-12-13T04:14:00;94127.97;;;-0.57;100.00
12793;BME280;6460;42.684;23.260;2022-12-13T04:16:28;94132.75;;;-0.45;100.00
12793;BME280;6460;42.684;23.260;2022-12-13T04:18:55;94134.72;;;-0.51;100.00
12793;BME280;6460;42.684;23.260;2022-12-13T04:21:22;94141.28;;;-0.48;100.00
12793;BME280;6460;42.684;23.260;2022-12-13T04:23:49;94150.78;;;-0.61;100.00
12793;BME280;6460;42.684;23.260;2022-12-13T04:26:18;94144.72;;;-0.89;100.00
12793;BME280;6460;42.684;23.260;2022-12-13T04:28:45;94154.09;;;-1.24;100.00
12793;BME280;6460;42.684;23.260;2022-12-13T04:31:12;94160.75;;;-1.26;100.00
12793;BME280;6460;42.684;23.260;2022-12-13T04:33:39;94155.44;;;-1.40;100.00
12793;BME280;6460;42.684;23.260;2022-12-13T04:36:07;94181.00;;;-1.54;100.00
12793;BME280;6460;42.684;23.260;2022-12-13T04:38:40;94183.97;;;-1.74;100.00
12793;BME280;6460;42.684;23.260;2022-12-13T04:41:12;94183.06;;;-1.83;100.00
12793;BME280;6460;42.684;23.260;2022-12-13T04:43:49;94178.94;;;-1.89;100.00
12793;BME280;6460;42.684;23.260;2022-12-13T04:46:17;94185.97;;;-1.85;100.00
12793;BME280;6460;42.684;23.260;2022-12-13T04:48:43;94185.13;;;-1.99;100.00
12793;BME280;6460;42.684;23.260;2022-12-13T04:51:10;94186.34;;;-2.10;100.00
12793;BME280;6460;42.684;23.260;2022-12-13T04:53:38;94189.41;;;-2.03;100.00
12793;BME280;6460;42.684;23.260;2022-12-13T04:56:06;94187.66;;;-2.07;100.00
12793;BME280;6460;42.684;23.260;2022-12-13T04:58:33;94193.16;;;-1.90;100.00
12793;BME280;6460;42.684;23.260;2022-12-13T05:01:05;94195.59;;;-2.13;100.00
12793;BME280;6460;42.684;23.260;2022-12-13T05:03:32;94188.75;;;-2.14;100.00
12793;BME280;6460;42.684;23.260;2022-12-13T05:06:03;94191.19;;;-1.98;100.00
12793;BME280;6460;42.684;23.260;2022-12-13T05:08:31;94194.22;;;-1.91;100.00
12793;BME280;6460;42.684;23.260;2022-12-13T05:11:00;94189.91;;;-1.82;100.00
12793;BME280;6460;42.684;23.260;2022-12-13T05:13:27;94196.84;;;-1.91;100.00
12793;BME280;6460;42.684;23.260;2022-12-13T05:15:55;94199.56;;;-1.96;100.00
12793;BME280;6460;42.684;23.260;2022-12-13T05:18:24;94203.69;;;-1.90;100.00
12793;BME280;6460;42.684;23.260;2022-12-13T05:20:52;94206.19;;;-1.99;100.00
12793;BME280;6460;42.684;23.260;2022-12-13T05:23:21;94204.97;;;-1.88;100.00
12793;BME280;6460;42.684;23.260;2022-12-13T05:25:49;94199.69;;;-1.88;100.00
12793;BME280;6460;42.684;23.260;2022-12-13T05:28:16;94206.09;;;-1.75;100.00
12793;BME280;6460;42.684;23.260;2022-12-13T05:30:43;94208.78;;;-1.62;100.00
12793;BME280;6460;42.684;23.260;2022-12-13T05:33:10;94212.84;;;-1.69;100.00
12793;BME280;6460;42.684;23.260;2022-12-13T05:35:39;94213.59;;;-1.82;100.00
12793;BME280;6460;42.684;23.260;2022-12-13T05:38:07;94211.13;;;-1.60;100.00
12793;BME280;6460;42.684;23.260;2022-12-13T05:40:34;94211.72;;;-1.63;100.00
12793;BME280;6460;42.684;23.260;2022-12-13T05:43:01;94218.84;;;-1.50;100.00
12793;BME280;6460;42.684;23.260;2022-12-13T05:45:29;94225.69;;;-1.49;100.00
12793;BME280;6460;42.684;23.260;2022-12-13T05:47:56;94224.09;;;-1.64;100.00
12793;BME280;6460;42.684;23.260;2022-12-13T05:50:24;94228.38;;;-1.68;100.00
12793;BME280;6460;42.684;23.260;2022-12-13T05:52:53;94220.47;;;-1.68;100.00
12793;BME280;6460;42.684;23.260;2022-12-13T05:55:20;94227.84;;;-1.51;100.00
12793;BME280;6460;42.684;23.260;2022-12-13T05:57:47;94238.81;;;-1.44;100.00
12793;BME280;6460;42.684;23.260;2022-12-13T06:00:15;94238.22;;;-1.41;100.00
12793;BME280;6460;42.684;23.260;2022-12-13T06:02:43;94246.41;;;-1.42;100.00
12793;BME280;6460;42.684;23.260;2022-12-13T06:05:10;94257.06;;;-1.34;100.00
12793;BME280;6460;42.684;23.260;2022-12-13T06:07:38;94252.38;;;-1.37;100.00
12793;BME280;6460;42.684;23.260;2022-12-13T06:10:07;94247.50;;;-1.30;100.00
12793;BME280;6460;42.684;23.260;2022-12-13T06:12:35;94248.50;;;-1.58;100.00
12793;BME280;6460;42.684;23.260;2022-12-13T06:15:04;94255.53;;;-1.35;100.00
12793;BME280;6460;42.684;23.260;2022-12-13T06:17:32;94244.66;;;-1.33;100.00
12793;BME280;6460;42.684;23.260;2022-12-13T06:20:00;94253.63;;;-1.48;100.00
12793;BME280;6460;42.684;23.260;2022-12-13T06:22:27;94246.56;;;-1.52;100.00
12793;BME280;6460;42.684;23.260;2022-12-13T06:24:54;94247.84;;;-1.50;100.00
12793;BME280;6460;42.684;23.260;2022-12-13T06:27:23;94255.72;;;-1.82;100.00
12793;BME280;6460;42.684;23.260;2022-12-13T06:29:50;94256.56;;;-1.87;100.00
12793;BME280;6460;42.684;23.260;2022-12-13T06:32:17;94252.22;;;-1.96;100.00
12793;BME280;6460;42.684;23.260;2022-12-13T06:34:45;94255.16;;;-1.98;100.00
12793;BME280;6460;42.684;23.260;2022-12-13T06:37:13;94260.44;;;-1.98;100.00
12793;BME280;6460;42.684;23.260;2022-12-13T06:39:40;94261.41;;;-1.94;100.00
12793;BME280;6460;42.684;23.260;2022-12-13T06:42:14;94267.53;;;-1.98;100.00
12793;BME280;6460;42.684;23.260;2022-12-13T06:44:44;94265.69;;;-1.79;100.00
12793;BME280;6460;42.684;23.260;2022-12-13T06:47:29;94267.53;;;-1.80;100.00
12793;BME280;6460;42.684;23.260;2022-12-13T06:50:04;94261.25;;;-1.84;100.00
12793;BME280;6460;42.684;23.260;2022-12-13T06:52:35;94259.34;;;-1.78;100.00
12793;BME280;6460;42.684;23.260;2022-12-13T06:55:03;94263.41;;;-1.67;100.00
12793;BME280;6460;42.684;23.260;2022-12-13T06:57:31;94259.19;;;-1.68;100.00
12793;BME280;6460;42.684;23.260;2022-12-13T07:00:00;94270.25;;;-1.66;100.00
12793;BME280;6460;42.684;23.260;2022-12-13T07:02:29;94253.34;;;-1.65;100.00
12793;BME280;6460;42.684;23.260;2022-12-13T07:04:57;94261.59;;;-1.53;100.00
12793;BME280;6460;42.684;23.260;2022-12-13T07:07:24;94268.31;;;-1.61;100.00
12793;BME280;6460;42.684;23.260;2022-12-13T07:09:52;94265.88;;;-1.57;100.00
12793;BME280;6460;42.684;23.260;2022-12-13T07:12:20;94271.41;;;-1.40;100.00
12793;BME280;6460;42.684;23.260;2022-12-13T07:14:48;94268.84;;;-1.45;100.00
12793;BME280;6460;42.684;23.260;2022-12-13T07:17:17;94276.66;;;-1.40;100.00
12793;BME280;6460;42.684;23.260;2022-12-13T07:19:44;94282.44;;;-1.38;100.00
12793;BME280;6460;42.684;23.260;2022-12-13T07:22:15;94281.03;;;-1.49;100.00
12793;BME280;6460;42.684;23.260;2022-12-13T07:24:42;94282.03;;;-1.13;100.00
12793;BME280;6460;42.684;23.260;2022-12-13T07:27:09;94274.91;;;-0.98;100.00
12793;BME280;6460;42.684;23.260;2022-12-13T07:29:37;94286.31;;;-1.17;100.00
12793;BME280;6460;42.684;23.260;2022-12-13T07:32:04;94295.16;;;-0.94;100.00
12793;BME280;6460;42.684;23.260;2022-12-13T07:34:33;94300.91;;;-0.92;100.00
12793;BME280;6460;42.684;23.260;2022-12-13T07:37:01;94296.22;;;-1.09;100.00
12793;BME280;6460;42.684;23.260;2022-12-13T07:39:28;94294.31;;;-1.22;100.00
12793;BME280;6460;42.684;23.260;2022-12-13T07:41:57;94289.38;;;-1.10;100.00
12793;BME280;6460;42.684;23.260;2022-12-13T07:44:24;94284.72;;;-0.85;100.00
12793;BME280;6460;42.684;23.260;2022-12-13T07:46:53;94286.19;;;-0.79;100.00
12793;BME280;6460;42.684;23.260;2022-12-13T07:49:20;94298.72;;;-0.71;100.00
12793;BME280;6460;42.684;23.260;2022-12-13T07:51:49;94304.44;;;-0.83;100.00
12793;BME280;6460;42.684;23.260;2022-12-13T07:54:15;94308.47;;;-0.85;100.00
12793;BME280;6460;42.684;23.260;2022-12-13T07:56:43;94302.84;;;-0.51;100.00
12793;BME280;6460;42.684;23.260;2022-12-13T07:59:10;94303.81;;;-0.47;100.00
12793;BME280;6460;42.684;23.260;2022-12-13T08:01:36;94293.84;;;-0.37;100.00
12793;BME280;6460;42.684;23.260;2022-12-13T08:04:04;94300.91;;;-0.32;100.00
12793;BME280;6460;42.684;23.260;2022-12-13T08:06:34;94301.38;;;-0.58;100.00
12793;BME280;6460;42.684;23.260;2022-12-13T08:09:03;94313.47;;;-0.57;100.00
12793;BME280;6460;42.684;23.260;2022-12-13T08:11:31;94311.03;;;-0.80;100.00
12793;BME280;6460;42.684;23.260;2022-12-13T08:13:58;94316.31;;;-0.80;100.00
12793;BME280;6460;42.684;23.260;2022-12-13T08:16:25;94318.31;;;-1.23;100.00
12793;BME280;6460;42.684;23.260;2022-12-13T08:18:52;94319.84;;;-1.36;100.00
12793;BME280;6460;42.684;23.260;2022-12-13T08:21:19;94320.88;;;-1.37;100.00
12793;BME280;6460;42.684;23.260;2022-12-13T08:23:46;94332.91;;;-1.31;100.00
12793;BME280;6460;42.684;23.260;2022-12-13T08:26:14;94324.59;;;-1.19;100.00
12793;BME280;6460;42.684;23.260;2022-12-13T08:28:41;94323.28;;;-1.03;100.00
12793;BME280;6460;42.684;23.260;2022-12-13T08:31:09;94310.69;;;-0.92;100.00
12793;BME280;6460;42.684;23.260;2022-12-13T08:33:38;94307.50;;;-0.89;100.00
12793;BME280;6460;42.684;23.260;2022-12-13T08:36:09;94309.06;;;-0.75;100.00
12793;BME280;6460;42.684;23.260;2022-12-13T08:38:36;94299.13;;;-0.50;100.00
12793;BME280;6460;42.684;23.260;2022-12-13T08:41:03;94308.91;;;-0.24;100.00
12793;BME280;6460;42.684;23.260;2022-12-13T08:43:32;94303.00;;;0.07;100.00
12793;BME280;6460;42.684;23.260;2022-12-13T08:45:59;94307.13;;;-0.01;100.00
12793;BME280;6460;42.684;23.260;2022-12-13T08:48:27;94307.59;;;0.15;100.00
12793;BME280;6460;42.684;23.260;2022-12-13T08:50:59;94301.06;;;-0.02;100.00
12793;BME280;6460;42.684;23.260;2022-12-13T08:53:26;94286.00;;;0.13;100.00
12793;BME280;6460;42.684;23.260;2022-12-13T08:55:53;94287.53;;;0.14;100.00
12793;BME280;6460;42.684;23.260;2022-12-13T08:58:20;94286.50;;;-0.13;100.00
12793;BME280;6460;42.684;23.260;2022-12-13T09:00:48;94283.78;;;-0.21;100.00
12793;BME280;6460;42.684;23.260;2022-12-13T09:03:16;94279.47;;;-0.31;100.00
12793;BME280;6460;42.684;23.260;2022-12-13T09:05:43;94275.13;;;0.00;100.00
12793;BME280;6460;42.684;23.260;2022-12-13T09:08:10;94272.88;;;-0.06;100.00
12793;BME280;6460;42.684;23.260;2022-12-13T09:10:37;94270.78;;;-0.31;100.00
12793;BME280;6460;42.684;23.260;2022-12-13T09:13:04;94274.91;;;-0.39;100.00
12793;BME280;6460;42.684;23.260;2022-12-13T09:15:31;94272.66;;;-0.45;100.00
12793;BME280;6460;42.684;23.260;2022-12-13T09:17:59;94259.66;;;0.08;100.00
12793;BME280;6460;42.684;23.260;2022-12-13T09:20:26;94257.09;;;0.16;100.00
12793;BME280;6460;42.684;23.260;2022-12-13T09:22:53;94252.28;;;0.54;100.00
12793;BME280;6460;42.684;23.260;2022-12-13T09:25:20;94252.91;;;0.73;100.00
12793;BME280;6460;42.684;23.260;2022-12-13T09:27:47;94250.47;;;0.85;100.00
12793;BME280;6460;42.684;23.260;2022-12-13T09:30:14;94243.25;;;0.77;100.00
12793;BME280;6460;42.684;23.260;2022-12-13T09:32:41;94243.97;;;0.91;100.00
12793;BME280;6460;42.684;23.260;2022-12-13T09:35:15;94235.88;;;0.88;100.00
12793;BME280;6460;42.684;23.260;2022-12-13T09:37:42;94242.75;;;1.28;100.00
12793;BME280;6460;42.684;23.260;2022-12-13T09:40:11;94233.28;;;1.36;100.00
12793;BME280;6460;42.684;23.260;2022-12-13T09:42:48;94235.38;;;1.17;100.00
12793;BME280;6460;42.684;23.260;2022-12-13T09:45:16;94240.41;;;1.27;100.00
12793;BME280;6460;42.684;23.260;2022-12-13T09:47:44;94233.38;;;1.53;100.00
12793;BME280;6460;42.684;23.260;2022-12-13T09:50:17;94232.84;;;1.34;100.00
12793;BME280;6460;42.684;23.260;2022-12-13T09:52:45;94225.34;;;1.36;100.00
12793;BME280;6460;42.684;23.260;2022-12-13T09:55:20;94235.78;;;1.41;100.00
12793;BME280;6460;42.684;23.260;2022-12-13T09:57:48;94228.19;;;1.39;100.00
12793;BME280;6460;42.684;23.260;2022-12-13T10:00:18;94232.84;;;1.34;100.00
12793;BME280;6460;42.684;23.260;2022-12-13T10:02:46;94233.81;;;1.46;100.00
12793;BME280;6460;42.684;23.260;2022-12-13T10:05:20;94221.63;;;2.79;100.00
12793;BME280;6460;42.684;23.260;2022-12-13T10:07:48;94221.50;;;2.16;100.00
12793;BME280;6460;42.684;23.260;2022-12-13T10:10:15;94235.53;;;2.25;100.00
12793;BME280;6460;42.684;23.260;2022-12-13T10:12:44;94233.50;;;2.22;100.00
12793;BME280;6460;42.684;23.260;2022-12-13T10:15:16;94223.34;;;2.15;100.00
12793;BME280;6460;42.684;23.260;2022-12-13T10:17:47;94222.44;;;2.20;100.00
12793;BME280;6460;42.684;23.260;2022-12-13T10:20:18;94222.41;;;2.11;100.00
12793;BME280;6460;42.684;23.260;2022-12-13T10:22:46;94225.69;;;2.34;100.00
12793;BME280;6460;42.684;23.260;2022-12-13T10:25:13;94208.53;;;2.57;100.00
12793;BME280;6460;42.684;23.260;2022-12-13T10:27:42;94204.28;;;2.82;100.00
12793;BME280;6460;42.684;23.260;2022-12-13T10:30:12;94194.31;;;2.79;100.00
12793;BME280;6460;42.684;23.260;2022-12-13T10:32:47;94182.88;;;2.95;100.00
12793;BME280;6460;42.684;23.260;2022-12-13T10:35:22;94181.59;;;3.01;100.00
12793;BME280;6460;42.684;23.260;2022-12-13T10:37:49;94179.34;;;3.20;100.00
12793;BME280;6460;42.684;23.260;2022-12-13T10:40:29;94184.81;;;3.24;100.00
12793;BME280;6460;42.684;23.260;2022-12-13T10:43:07;94188.50;;;2.85;100.00
12793;BME280;6460;42.684;23.260;2022-12-13T10:45:36;94168.38;;;2.84;100.00
12793;BME280;6460;42.684;23.260;2022-12-13T10:48:04;94182.31;;;2.64;100.00
12793;BME280;6460;42.684;23.260;2022-12-13T10:50:33;94179.06;;;2.50;100.00
12793;BME280;6460;42.684;23.260;2022-12-13T10:53:01;94172.97;;;1.98;100.00
12793;BME280;6460;42.684;23.260;2022-12-13T10:55:31;94163.00;;;2.38;100.00
12793;BME280;6460;42.684;23.260;2022-12-13T10:58:01;94155.84;;;2.12;100.00
12793;BME280;6460;42.684;23.260;2022-12-13T11:00:37;94167.56;;;2.20;100.00
12793;BME280;6460;42.684;23.260;2022-12-13T11:03:07;94166.91;;;2.40;100.00
12793;BME280;6460;42.684;23.260;2022-12-13T11:05:38;94164.25;;;2.49;100.00
12793;BME280;6460;42.684;23.260;2022-12-13T11:08:19;94162.81;;;2.60;100.00
12793;BME280;6460;42.684;23.260;2022-12-13T11:10:55;94156.91;;;3.09;100.00
12793;BME280;6460;42.684;23.260;2022-12-13T11:13:34;94135.50;;;3.14;100.00
12793;BME280;6460;42.684;23.260;2022-12-13T11:16:09;94131.75;;;3.45;100.00
12793;BME280;6460;42.684;23.260;2022-12-13T11:18:43;94138.53;;;3.63;100.00
12793;BME280;6460;42.684;23.260;2022-12-13T11:21:22;94131.69;;;4.03;70.13
12793;BME280;6460;42.684;23.260;2022-12-13T11:23:50;94137.66;;;4.21;67.35
12793;BME280;6460;42.684;23.260;2022-12-13T11:26:19;94123.75;;;4.15;67.63
12793;BME280;6460;42.684;23.260;2022-12-13T11:29:20;94139.19;;;4.22;68.09
12793;BME280;6460;42.684;23.260;2022-12-13T11:32:02;94140.63;;;4.19;66.28
12793;BME280;6460;42.684;23.260;2022-12-13T11:34:39;94149.16;;;4.46;66.54
12793;BME280;6460;42.684;23.260;2022-12-13T11:37:19;94144.91;;;4.33;67.63
12793;BME280;6460;42.684;23.260;2022-12-13T11:39:51;94153.72;;;4.24;70.40
12793;BME280;6460;42.684;23.260;2022-12-13T11:42:26;94138.00;;;4.32;69.63
12793;BME280;6460;42.684;23.260;2022-12-13T11:45:00;94132.78;;;4.02;66.15
12793;BME280;6460;42.684;23.260;2022-12-13T11:47:37;94142.38;;;4.15;66.76
12793;BME280;6460;42.684;23.260;2022-12-13T11:50:14;94147.78;;;4.28;65.14
12793;BME280;6460;42.684;23.260;2022-12-13T11:52:48;94137.44;;;4.05;65.29
12793;BME280;6460;42.684;23.260;2022-12-13T11:55:20;94135.63;;;4.39;66.38
12793;BME280;6460;42.684;23.260;2022-12-13T11:57:55;94138.06;;;4.44;63.45
12793;BME280;6460;42.684;23.260;2022-12-13T12:00:30;94139.06;;;4.39;66.55
12793;BME280;6460;42.684;23.260;2022-12-13T12:03:05;94131.00;;;4.48;63.49
12793;BME280;6460;42.684;23.260;2022-12-13T12:05:40;94129.25;;;4.64;63.65
12793;BME280;6460;42.684;23.260;2022-12-13T12:08:19;94125.28;;;4.37;61.25
12793;BME280;6460;42.684;23.260;2022-12-13T12:10:53;94119.88;;;4.13;63.19
12793;BME280;6460;42.684;23.260;2022-12-13T12:13:28;94119.03;;;4.54;63.18
12793;BME280;6460;42.684;23.260;2022-12-13T12:16:05;94123.94;;;4.64;62.39
12793;BME280;6460;42.684;23.260;2022-12-13T12:18:34;94121.91;;;4.49;63.39
12793;BME280;6460;42.684;23.260;2022-12-13T12:21:19;94124.22;;;4.95;61.72
12793;BME280;6460;42.684;23.260;2022-12-13T12:24:02;94122.22;;;4.92;61.02
12793;BME280;6460;42.684;23.260;2022-12-13T12:26:40;94115.53;;;4.62;61.86
12793;BME280;6460;42.684;23.260;2022-12-13T12:29:36;94109.41;;;4.28;63.72
12793;BME280;6460;42.684;23.260;2022-12-13T12:32:18;94124.34;;;4.54;65.93
12793;BME280;6460;42.684;23.260;2022-12-13T12:34:55;94116.22;;;4.83;64.33
12793;BME280;6460;42.684;23.260;2022-12-13T12:37:34;94124.28;;;4.62;63.11
12793;BME280;6460;42.684;23.260;2022-12-13T12:40:26;94116.38;;;4.54;63.89
12793;BME280;6460;42.684;23.260;2022-12-13T12:43:05;94121.28;;;4.31;63.73
12793;BME280;6460;42.684;23.260;2022-12-13T12:45:53;94134.22;;;4.20;63.66
12793;BME280;6460;42.684;23.260;2022-12-13T12:49:01;94130.50;;;4.34;65.34
12793;BME280;6460;42.684;23.260;2022-12-13T12:51:42;94135.56;;;4.06;63.09
12793;BME280;6460;42.684;23.260;2022-12-13T12:54:25;94143.91;;;3.75;63.73
12793;BME280;6460;42.684;23.260;2022-12-13T12:57:04;94144.78;;;3.88;63.67
12793;BME280;6460;42.684;23.260;2022-12-13T12:59:39;94146.97;;;4.06;65.10
12793;BME280;6460;42.684;23.260;2022-12-13T13:02:16;94142.56;;;4.10;64.58
12793;BME280;6460;42.684;23.260;2022-12-13T13:04:49;94138.50;;;3.92;65.29
12793;BME280;6460;42.684;23.260;2022-12-13T13:07:21;94151.16;;;3.95;63.50
12793;BME280;6460;42.684;23.260;2022-12-13T13:09:49;94153.09;;;3.57;66.14
12793;BME280;6460;42.684;23.260;2022-12-13T13:12:19;94156.75;;;3.73;67.18
12793;BME280;6460;42.684;23.260;2022-12-13T13:14:46;94168.94;;;3.74;66.21
12793;BME280;6460;42.684;23.260;2022-12-13T13:17:45;94164.97;;;3.80;66.53
12793;BME280;6460;42.684;23.260;2022-12-13T13:20:20;94180.56;;;3.32;65.60